sensor_id;sensor_type;location;lat;lon;timestamp;temperature;humidity
69595;DHT22;56800;52.142;5.364;2024-02-14T00:00:54;8.60;89.00
69595;DHT22;56800;52.142;5.364;2024-02-14T00:03:22;8.60;89.00
69595;DHT22;56800;52.142;5.364;2024-02-14T00:05:50;8.60;89.00
69595;DHT22;56800;52.142;5.364;2024-02-14T00:08:18;8.60;89.20
69595;DHT22;56800;52.142;5.364;2024-02-14T00:10:45;8.60;89.40
69595;DHT22;56800;52.142;5.364;2024-02-14T00:13:12;8.70;89.40
69595;DHT22;56800;52.142;5.364;2024-02-14T00:15:40;8.70;89.40
69595;DHT22;56800;52.142;5.364;2024-02-14T00:18:06;8.70;89.60
69595;DHT22;56800;52.142;5.364;2024-02-14T00:20:33;8.70;89.50
69595;DHT22;56800;52.142;5.364;2024-02-14T00:23:00;8.70;89.50
69595;DHT22;56800;52.142;5.364;2024-02-14T00:25:28;8.70;89.50
69595;DHT22;56800;52.142;5.364;2024-02-14T00:27:56;8.80;89.50
69595;DHT22;56800;52.142;5.364;2024-02-14T00:30:24;8.80;89.80
69595;DHT22;56800;52.142;5.364;2024-02-14T00:32:53;8.80;89.60
69595;DHT22;56800;52.142;5.364;2024-02-14T00:35:20;8.80;89.80
69595;DHT22;56800;52.142;5.364;2024-02-14T00:37:47;8.80;89.70
69595;DHT22;56800;52.142;5.364;2024-02-14T00:40:14;8.80;89.70
69595;DHT22;56800;52.142;5.364;2024-02-14T00:42:41;8.90;89.80
69595;DHT22;56800;52.142;5.364;2024-02-14T00:45:08;8.90;89.90
69595;DHT22;56800;52.142;5.364;2024-02-14T00:47:35;8.90;89.90
69595;DHT22;56800;52.142;5.364;2024-02-14T00:50:03;8.90;90.00
69595;DHT22;56800;52.142;5.364;2024-02-14T00:52:30;9.00;90.10
69595;DHT22;56800;52.142;5.364;2024-02-14T00:54:57;8.90;90.10
69595;DHT22;56800;52.142;5.364;2024-02-14T00:57:24;9.00;90.10
69595;DHT22;56800;52.142;5.364;2024-02-14T00:59:52;9.00;90.10
69595;DHT22;56800;52.142;5.364;2024-02-14T01:02:19;9.00;90.20
69595;DHT22;56800;52.142;5.364;2024-02-14T01:04:46;9.10;90.40
69595;DHT22;56800;52.142;5.364;2024-02-14T01:07:13;9.10;90.30
69595;DHT22;56800;52.142;5.364;2024-02-14T01:09:40;9.10;89.90
69595;DHT22;56800;52.142;5.364;2024-02-14T01:12:07;9.10;90.20
69595;DHT22;56800;52.142;5.364;2024-02-14T01:14:35;9.10;90.20
69595;DHT22;56800;52.142;5.364;2024-02-14T01:17:02;9.20;90.30
69595;DHT22;56800;52.142;5.364;2024-02-14T01:19:30;9.20;90.30
69595;DHT22;56800;52.142;5.364;2024-02-14T01:21:57;9.20;90.20
69595;DHT22;56800;52.142;5.364;2024-02-14T01:24:24;9.20;90.30
69595;DHT22;56800;52.142;5.364;2024-02-14T01:26:53;9.20;90.30
69595;DHT22;56800;52.142;5.364;2024-02-14T01:29:21;9.20;90.40
69595;DHT22;56800;52.142;5.364;2024-02-14T01:31:49;9.30;90.40
69595;DHT22;56800;52.142;5.364;2024-02-14T01:34:16;9.30;90.30
69595;DHT22;56800;52.142;5.364;2024-02-14T01:36:44;9.30;90.30
69595;DHT22;56800;52.142;5.364;2024-02-14T01:39:10;9.30;90.30
69595;DHT22;56800;52.142;5.364;2024-02-14T01:41:38;9.40;90.40
69595;DHT22;56800;52.142;5.364;2024-02-14T01:44:05;9.40;90.40
69595;DHT22;56800;52.142;5.364;2024-02-14T01:46:32;9.40;90.40
69595;DHT22;56800;52.142;5.364;2024-02-14T01:48:59;9.40;90.40
69595;DHT22;56800;52.142;5.364;2024-02-14T01:51:26;9.40;90.40
69595;DHT22;56800;52.142;5.364;2024-02-14T01:53:54;9.50;90.80
69595;DHT22;56800;52.142;5.364;2024-02-14T01:56:21;9.50;90.40
69595;DHT22;56800;52.142;5.364;2024-02-14T01:58:48;9.50;90.40
69595;DHT22;56800;52.142;5.364;2024-02-14T02:01:15;9.50;90.60
69595;DHT22;56800;52.142;5.364;2024-02-14T02:03:44;9.50;90.60
69595;DHT22;56800;52.142;5.364;2024-02-14T02:06:12;9.50;90.60
69595;DHT22;56800;52.142;5.364;2024-02-14T02:08:39;9.50;90.60
69595;DHT22;56800;52.142;5.364;2024-02-14T02:11:08;9.60;90.60
69595;DHT22;56800;52.142;5.364;2024-02-14T02:13:35;9.60;90.60
69595;DHT22;56800;52.142;5.364;2024-02-14T02:16:03;9.60;90.60
69595;DHT22;56800;52.142;5.364;2024-02-14T02:18:32;9.70;90.70
69595;DHT22;56800;52.142;5.364;2024-02-14T02:20:59;9.70;90.80
69595;DHT22;56800;52.142;5.364;2024-02-14T02:23:26;9.70;90.80
69595;DHT22;56800;52.142;5.364;2024-02-14T02:25:54;9.70;90.70
69595;DHT22;56800;52.142;5.364;2024-02-14T02:28:21;9.70;90.70
69595;DHT22;56800;52.142;5.364;2024-02-14T02:30:47;9.70;90.80
69595;DHT22;56800;52.142;5.364;2024-02-14T02:33:14;9.70;90.80
69595;DHT22;56800;52.142;5.364;2024-02-14T02:35:42;9.70;90.70
69595;DHT22;56800;52.142;5.364;2024-02-14T02:38:12;9.80;90.80
69595;DHT22;56800;52.142;5.364;2024-02-14T02:40:38;9.80;90.70
69595;DHT22;56800;52.142;5.364;2024-02-14T02:43:05;9.80;90.70
69595;DHT22;56800;52.142;5.364;2024-02-14T02:45:32;9.80;90.80
69595;DHT22;56800;52.142;5.364;2024-02-14T02:47:59;9.80;90.90
69595;DHT22;56800;52.142;5.364;2024-02-14T02:50:27;9.80;90.90
69595;DHT22;56800;52.142;5.364;2024-02-14T02:52:54;9.90;90.90
69595;DHT22;56800;52.142;5.364;2024-02-14T02:55:21;9.90;90.90
69595;DHT22;56800;52.142;5.364;2024-02-14T02:57:48;9.90;91.00
69595;DHT22;56800;52.142;5.364;2024-02-14T03:00:15;9.90;90.90
69595;DHT22;56800;52.142;5.364;2024-02-14T03:02:43;9.90;91.30
69595;DHT22;56800;52.142;5.364;2024-02-14T03:05:11;9.90;91.00
69595;DHT22;56800;52.142;5.364;2024-02-14T03:07:45;9.90;90.90
69595;DHT22;56800;52.142;5.364;2024-02-14T03:10:13;9.90;90.90
69595;DHT22;56800;52.142;5.364;2024-02-14T03:12:40;9.90;90.90
69595;DHT22;56800;52.142;5.364;2024-02-14T03:15:07;10.00;90.90
69595;DHT22;56800;52.142;5.364;2024-02-14T03:17:37;10.00;90.90
69595;DHT22;56800;52.142;5.364;2024-02-14T03:20:04;10.00;90.90
69595;DHT22;56800;52.142;5.364;2024-02-14T03:22:43;10.00;90.90
69595;DHT22;56800;52.142;5.364;2024-02-14T03:25:16;10.00;90.90
69595;DHT22;56800;52.142;5.364;2024-02-14T03:27:44;10.00;91.00
69595;DHT22;56800;52.142;5.364;2024-02-14T03:30:16;10.00;90.90
69595;DHT22;56800;52.142;5.364;2024-02-14T03:32:45;10.00;90.90
69595;DHT22;56800;52.142;5.364;2024-02-14T03:35:12;10.10;90.90
69595;DHT22;56800;52.142;5.364;2024-02-14T03:37:44;10.10;90.90
69595;DHT22;56800;52.142;5.364;2024-02-14T03:40:14;10.10;91.00
69595;DHT22;56800;52.142;5.364;2024-02-14T03:42:41;10.10;91.00
69595;DHT22;56800;52.142;5.364;2024-02-14T03:45:09;10.10;91.00
69595;DHT22;56800;52.142;5.364;2024-02-14T03:47:36;10.10;91.00
69595;DHT22;56800;52.142;5.364;2024-02-14T03:50:07;10.20;91.00
69595;DHT22;56800;52.142;5.364;2024-02-14T03:52:34;10.20;91.00
69595;DHT22;56800;52.142;5.364;2024-02-14T03:55:01;10.20;91.10
69595;DHT22;56800;52.142;5.364;2024-02-14T03:57:28;10.20;91.00
69595;DHT22;56800;52.142;5.364;2024-02-14T03:59:55;10.20;91.00
69595;DHT22;56800;52.142;5.364;2024-02-14T04:02:23;10.30;91.00
69595;DHT22;56800;52.142;5.364;2024-02-14T04:04:50;10.30;91.00
69595;DHT22;56800;52.142;5.364;2024-02-14T04:07:17;10.30;91.10
69595;DHT22;56800;52.142;5.364;2024-02-14T04:09:44;10.30;91.00
69595;DHT22;56800;52.142;5.364;2024-02-14T04:12:11;10.30;91.00
69595;DHT22;56800;52.142;5.364;2024-02-14T04:14:38;10.30;91.30
69595;DHT22;56800;52.142;5.364;2024-02-14T04:17:05;10.40;91.10
69595;DHT22;56800;52.142;5.364;2024-02-14T04:19:34;10.40;91.10
69595;DHT22;56800;52.142;5.364;2024-02-14T04:22:01;10.40;91.10
69595;DHT22;56800;52.142;5.364;2024-02-14T04:24:28;10.40;91.20
69595;DHT22;56800;52.142;5.364;2024-02-14T04:26:54;10.40;91.10
69595;DHT22;56800;52.142;5.364;2024-02-14T04:29:23;10.40;91.10
69595;DHT22;56800;52.142;5.364;2024-02-14T04:31:50;10.40;91.00
69595;DHT22;56800;52.142;5.364;2024-02-14T04:34:17;10.50;91.10
69595;DHT22;56800;52.142;5.364;2024-02-14T04:36:45;10.50;91.10
69595;DHT22;56800;52.142;5.364;2024-02-14T04:39:12;10.50;91.10
69595;DHT22;56800;52.142;5.364;2024-02-14T04:41:39;10.50;91.00
69595;DHT22;56800;52.142;5.364;2024-02-14T04:44:23;10.50;91.00
69595;DHT22;56800;52.142;5.364;2024-02-14T04:46:49;10.50;91.00
69595;DHT22;56800;52.142;5.364;2024-02-14T04:49:16;10.50;91.00
69595;DHT22;56800;52.142;5.364;2024-02-14T04:51:43;10.50;91.00
69595;DHT22;56800;52.142;5.364;2024-02-14T04:54:10;10.50;91.00
69595;DHT22;56800;52.142;5.364;2024-02-14T04:56:37;10.60;91.00
69595;DHT22;56800;52.142;5.364;2024-02-14T04:59:04;10.60;91.00
69595;DHT22;56800;52.142;5.364;2024-02-14T05:01:31;10.60;91.00
69595;DHT22;56800;52.142;5.364;2024-02-14T05:03:58;10.60;91.00
69595;DHT22;56800;52.142;5.364;2024-02-14T05:06:25;10.60;91.00
69595;DHT22;56800;52.142;5.364;2024-02-14T05:08:52;10.60;91.00
69595;DHT22;56800;52.142;5.364;2024-02-14T05:11:20;10.60;91.00
69595;DHT22;56800;52.142;5.364;2024-02-14T05:13:47;10.60;91.00
69595;DHT22;56800;52.142;5.364;2024-02-14T05:16:18;10.70;91.30
69595;DHT22;56800;52.142;5.364;2024-02-14T05:18:45;10.60;91.00
69595;DHT22;56800;52.142;5.364;2024-02-14T05:21:12;10.70;91.00
69595;DHT22;56800;52.142;5.364;2024-02-14T05:23:38;10.70;91.00
69595;DHT22;56800;52.142;5.364;2024-02-14T05:26:06;10.70;91.00
69595;DHT22;56800;52.142;5.364;2024-02-14T05:28:33;10.70;91.00
69595;DHT22;56800;52.142;5.364;2024-02-14T05:31:00;10.70;91.00
69595;DHT22;56800;52.142;5.364;2024-02-14T05:33:27;10.70;91.00
69595;DHT22;56800;52.142;5.364;2024-02-14T05:35:54;10.70;91.00
69595;DHT22;56800;52.142;5.364;2024-02-14T05:38:21;10.70;91.00
69595;DHT22;56800;52.142;5.364;2024-02-14T05:40:49;10.70;91.00
69595;DHT22;56800;52.142;5.364;2024-02-14T05:43:16;10.70;91.00
69595;DHT22;56800;52.142;5.364;2024-02-14T05:45:44;10.80;91.00
69595;DHT22;56800;52.142;5.364;2024-02-14T05:48:11;10.70;91.00
69595;DHT22;56800;52.142;5.364;2024-02-14T05:50:38;10.70;90.90
69595;DHT22;56800;52.142;5.364;2024-02-14T05:53:05;10.70;91.00
69595;DHT22;56800;52.142;5.364;2024-02-14T05:55:32;10.80;91.00
69595;DHT22;56800;52.142;5.364;2024-02-14T05:57:59;10.70;91.00
69595;DHT22;56800;52.142;5.364;2024-02-14T06:00:26;10.80;91.10
69595;DHT22;56800;52.142;5.364;2024-02-14T06:02:58;10.70;91.10
69595;DHT22;56800;52.142;5.364;2024-02-14T06:05:24;10.80;91.10
69595;DHT22;56800;52.142;5.364;2024-02-14T06:07:51;10.70;91.00
69595;DHT22;56800;52.142;5.364;2024-02-14T06:10:18;10.80;91.10
69595;DHT22;56800;52.142;5.364;2024-02-14T06:12:45;10.70;91.10
69595;DHT22;56800;52.142;5.364;2024-02-14T06:15:14;10.80;91.10
69595;DHT22;56800;52.142;5.364;2024-02-14T06:17:41;10.80;91.10
69595;DHT22;56800;52.142;5.364;2024-02-14T06:20:08;10.80;91.10
69595;DHT22;56800;52.142;5.364;2024-02-14T06:22:36;10.80;91.10
69595;DHT22;56800;52.142;5.364;2024-02-14T06:25:13;10.80;91.10
69595;DHT22;56800;52.142;5.364;2024-02-14T06:27:40;10.80;91.00
69595;DHT22;56800;52.142;5.364;2024-02-14T06:30:07;10.90;91.10
69595;DHT22;56800;52.142;5.364;2024-02-14T06:32:35;10.90;91.10
69595;DHT22;56800;52.142;5.364;2024-02-14T06:35:03;10.80;91.10
69595;DHT22;56800;52.142;5.364;2024-02-14T06:37:30;10.80;91.10
69595;DHT22;56800;52.142;5.364;2024-02-14T06:40:11;10.90;91.10
69595;DHT22;56800;52.142;5.364;2024-02-14T06:42:38;10.80;91.10
69595;DHT22;56800;52.142;5.364;2024-02-14T06:45:06;10.80;91.10
69595;DHT22;56800;52.142;5.364;2024-02-14T06:47:33;10.90;91.50
69595;DHT22;56800;52.142;5.364;2024-02-14T06:50:00;10.90;91.10
69595;DHT22;56800;52.142;5.364;2024-02-14T06:52:27;10.90;91.00
69595;DHT22;56800;52.142;5.364;2024-02-14T06:54:53;10.90;91.10
69595;DHT22;56800;52.142;5.364;2024-02-14T06:57:20;10.90;91.10
69595;DHT22;56800;52.142;5.364;2024-02-14T06:59:47;10.90;91.10
69595;DHT22;56800;52.142;5.364;2024-02-14T07:02:14;10.90;91.00
69595;DHT22;56800;52.142;5.364;2024-02-14T07:04:41;10.90;91.10
69595;DHT22;56800;52.142;5.364;2024-02-14T07:07:08;10.90;91.10
69595;DHT22;56800;52.142;5.364;2024-02-14T07:09:35;10.90;91.10
69595;DHT22;56800;52.142;5.364;2024-02-14T07:12:03;10.90;91.10
69595;DHT22;56800;52.142;5.364;2024-02-14T07:14:31;10.90;91.10
69595;DHT22;56800;52.142;5.364;2024-02-14T07:16:58;10.90;91.10
69595;DHT22;56800;52.142;5.364;2024-02-14T07:19:25;10.90;91.10
69595;DHT22;56800;52.142;5.364;2024-02-14T07:21:52;10.90;91.00
69595;DHT22;56800;52.142;5.364;2024-02-14T07:24:18;10.90;91.10
69595;DHT22;56800;52.142;5.364;2024-02-14T07:26:45;10.90;91.10
69595;DHT22;56800;52.142;5.364;2024-02-14T07:29:12;10.90;91.20
69595;DHT22;56800;52.142;5.364;2024-02-14T07:31:39;11.00;91.20
69595;DHT22;56800;52.142;5.364;2024-02-14T07:34:06;10.90;91.20
69595;DHT22;56800;52.142;5.364;2024-02-14T07:36:35;11.00;91.20
69595;DHT22;56800;52.142;5.364;2024-02-14T07:39:02;11.00;91.20
69595;DHT22;56800;52.142;5.364;2024-02-14T07:41:30;11.00;91.20
69595;DHT22;56800;52.142;5.364;2024-02-14T07:43:57;11.00;91.20
69595;DHT22;56800;52.142;5.364;2024-02-14T07:46:24;11.00;91.20
69595;DHT22;56800;52.142;5.364;2024-02-14T07:48:53;11.00;91.20
69595;DHT22;56800;52.142;5.364;2024-02-14T07:51:20;11.00;91.20
69595;DHT22;56800;52.142;5.364;2024-02-14T07:53:49;11.10;91.20
69595;DHT22;56800;52.142;5.364;2024-02-14T07:56:17;11.10;91.20
69595;DHT22;56800;52.142;5.364;2024-02-14T07:58:44;11.10;91.20
69595;DHT22;56800;52.142;5.364;2024-02-14T08:01:11;11.10;91.20
69595;DHT22;56800;52.142;5.364;2024-02-14T08:03:40;11.10;91.20
69595;DHT22;56800;52.142;5.364;2024-02-14T08:06:07;11.10;91.20
69595;DHT22;56800;52.142;5.364;2024-02-14T08:08:35;11.10;91.20
69595;DHT22;56800;52.142;5.364;2024-02-14T08:11:02;11.10;91.20
69595;DHT22;56800;52.142;5.364;2024-02-14T08:13:28;11.10;91.20
69595;DHT22;56800;52.142;5.364;2024-02-14T08:15:55;11.10;91.20
69595;DHT22;56800;52.142;5.364;2024-02-14T08:18:22;11.10;91.20
69595;DHT22;56800;52.142;5.364;2024-02-14T08:20:53;11.10;91.20
69595;DHT22;56800;52.142;5.364;2024-02-14T08:23:20;11.20;91.20
69595;DHT22;56800;52.142;5.364;2024-02-14T08:25:47;11.20;91.20
69595;DHT22;56800;52.142;5.364;2024-02-14T08:28:15;11.20;91.20
69595;DHT22;56800;52.142;5.364;2024-02-14T08:30:44;11.20;91.20
69595;DHT22;56800;52.142;5.364;2024-02-14T08:33:11;11.20;91.20
69595;DHT22;56800;52.142;5.364;2024-02-14T08:35:38;11.20;91.20
69595;DHT22;56800;52.142;5.364;2024-02-14T08:38:09;11.20;91.20
69595;DHT22;56800;52.142;5.364;2024-02-14T08:40:36;11.20;91.20
69595;DHT22;56800;52.142;5.364;2024-02-14T08:43:03;11.20;91.20
69595;DHT22;56800;52.142;5.364;2024-02-14T08:45:31;11.20;91.30
69595;DHT22;56800;52.142;5.364;2024-02-14T08:47:58;11.30;91.30
69595;DHT22;56800;52.142;5.364;2024-02-14T08:50:25;11.30;91.30
69595;DHT22;56800;52.142;5.364;2024-02-14T08:52:52;11.30;91.30
69595;DHT22;56800;52.142;5.364;2024-02-14T08:55:18;11.30;91.30
69595;DHT22;56800;52.142;5.364;2024-02-14T08:57:45;11.30;91.30
69595;DHT22;56800;52.142;5.364;2024-02-14T09:00:15;11.30;91.30
69595;DHT22;56800;52.142;5.364;2024-02-14T09:02:46;11.30;91.30
69595;DHT22;56800;52.142;5.364;2024-02-14T09:05:14;11.30;91.30
69595;DHT22;56800;52.142;5.364;2024-02-14T09:07:41;11.30;91.30
69595;DHT22;56800;52.142;5.364;2024-02-14T09:10:08;11.30;91.30
69595;DHT22;56800;52.142;5.364;2024-02-14T09:12:37;11.30;91.30
69595;DHT22;56800;52.142;5.364;2024-02-14T09:15:05;11.30;91.30
69595;DHT22;56800;52.142;5.364;2024-02-14T09:17:32;11.30;91.30
69595;DHT22;56800;52.142;5.364;2024-02-14T09:19:59;11.30;91.30
69595;DHT22;56800;52.142;5.364;2024-02-14T09:22:26;11.40;91.30
69595;DHT22;56800;52.142;5.364;2024-02-14T09:24:53;11.40;91.30
69595;DHT22;56800;52.142;5.364;2024-02-14T09:27:19;11.40;91.30
69595;DHT22;56800;52.142;5.364;2024-02-14T09:29:46;11.40;91.30
69595;DHT22;56800;52.142;5.364;2024-02-14T09:32:13;11.40;91.30
69595;DHT22;56800;52.142;5.364;2024-02-14T09:34:40;11.40;91.30
69595;DHT22;56800;52.142;5.364;2024-02-14T09:37:07;11.40;91.30
69595;DHT22;56800;52.142;5.364;2024-02-14T09:39:34;11.50;91.30
69595;DHT22;56800;52.142;5.364;2024-02-14T09:42:09;11.50;91.30
69595;DHT22;56800;52.142;5.364;2024-02-14T09:44:37;11.50;91.30
69595;DHT22;56800;52.142;5.364;2024-02-14T09:47:06;11.50;91.30
69595;DHT22;56800;52.142;5.364;2024-02-14T09:49:35;11.50;91.30
69595;DHT22;56800;52.142;5.364;2024-02-14T09:52:04;11.50;91.30
69595;DHT22;56800;52.142;5.364;2024-02-14T09:54:32;11.50;91.30
69595;DHT22;56800;52.142;5.364;2024-02-14T09:57:02;11.60;91.30
69595;DHT22;56800;52.142;5.364;2024-02-14T09:59:29;11.60;91.30
69595;DHT22;56800;52.142;5.364;2024-02-14T10:01:57;11.50;91.20
69595;DHT22;56800;52.142;5.364;2024-02-14T10:04:24;11.50;91.20
69595;DHT22;56800;52.142;5.364;2024-02-14T10:06:52;11.60;91.20
69595;DHT22;56800;52.142;5.364;2024-02-14T10:09:21;11.60;91.30
69595;DHT22;56800;52.142;5.364;2024-02-14T10:11:49;11.60;91.30
69595;DHT22;56800;52.142;5.364;2024-02-14T10:14:16;11.60;91.30
69595;DHT22;56800;52.142;5.364;2024-02-14T10:16:42;11.60;91.30
69595;DHT22;56800;52.142;5.364;2024-02-14T10:19:18;11.60;91.30
69595;DHT22;56800;52.142;5.364;2024-02-14T10:21:59;11.60;91.30
69595;DHT22;56800;52.142;5.364;2024-02-14T10:24:28;11.60;91.30
69595;DHT22;56800;52.142;5.364;2024-02-14T10:26:55;11.70;91.30
69595;DHT22;56800;52.142;5.364;2024-02-14T10:29:24;11.70;91.30
69595;DHT22;56800;52.142;5.364;2024-02-14T10:31:53;11.70;91.40
69595;DHT22;56800;52.142;5.364;2024-02-14T10:34:24;11.70;91.30
69595;DHT22;56800;52.142;5.364;2024-02-14T10:36:53;11.70;91.30
69595;DHT22;56800;52.142;5.364;2024-02-14T10:39:25;11.70;91.30
69595;DHT22;56800;52.142;5.364;2024-02-14T10:41:52;11.70;91.30
69595;DHT22;56800;52.142;5.364;2024-02-14T10:44:20;11.80;91.40
69595;DHT22;56800;52.142;5.364;2024-02-14T10:46:49;11.80;91.70
69595;DHT22;56800;52.142;5.364;2024-02-14T10:49:20;11.80;91.40
69595;DHT22;56800;52.142;5.364;2024-02-14T10:51:48;11.80;91.40
69595;DHT22;56800;52.142;5.364;2024-02-14T10:54:17;11.90;91.40
69595;DHT22;56800;52.142;5.364;2024-02-14T10:56:49;12.00;91.40
69595;DHT22;56800;52.142;5.364;2024-02-14T10:59:18;11.90;91.30
69595;DHT22;56800;52.142;5.364;2024-02-14T11:01:47;11.90;91.30
69595;DHT22;56800;52.142;5.364;2024-02-14T11:04:14;11.90;91.30
69595;DHT22;56800;52.142;5.364;2024-02-14T11:06:45;12.00;91.30
69595;DHT22;56800;52.142;5.364;2024-02-14T11:09:13;12.00;91.40
69595;DHT22;56800;52.142;5.364;2024-02-14T11:11:44;12.00;91.30
69595;DHT22;56800;52.142;5.364;2024-02-14T11:14:18;12.00;91.30
69595;DHT22;56800;52.142;5.364;2024-02-14T11:16:45;12.00;91.30
69595;DHT22;56800;52.142;5.364;2024-02-14T11:19:13;12.00;91.30
69595;DHT22;56800;52.142;5.364;2024-02-14T11:21:43;12.00;91.30
69595;DHT22;56800;52.142;5.364;2024-02-14T11:24:11;12.00;91.30
69595;DHT22;56800;52.142;5.364;2024-02-14T11:26:51;12.00;91.40
69595;DHT22;56800;52.142;5.364;2024-02-14T11:29:19;12.00;91.30
69595;DHT22;56800;52.142;5.364;2024-02-14T11:32:00;12.00;91.40
69595;DHT22;56800;52.142;5.364;2024-02-14T11:34:29;12.10;91.70
69595;DHT22;56800;52.142;5.364;2024-02-14T11:37:02;12.10;91.30
69595;DHT22;56800;52.142;5.364;2024-02-14T11:39:29;12.10;91.30
69595;DHT22;56800;52.142;5.364;2024-02-14T11:41:57;12.10;91.20
69595;DHT22;56800;52.142;5.364;2024-02-14T11:44:25;12.10;91.30
69595;DHT22;56800;52.142;5.364;2024-02-14T11:46:52;12.10;91.30
69595;DHT22;56800;52.142;5.364;2024-02-14T11:49:20;12.10;91.20
69595;DHT22;56800;52.142;5.364;2024-02-14T11:51:48;12.10;91.30
69595;DHT22;56800;52.142;5.364;2024-02-14T11:54:14;12.10;91.30
69595;DHT22;56800;52.142;5.364;2024-02-14T11:56:42;12.10;91.30
69595;DHT22;56800;52.142;5.364;2024-02-14T11:59:09;12.20;91.30
69595;DHT22;56800;52.142;5.364;2024-02-14T12:01:37;12.20;91.30
69595;DHT22;56800;52.142;5.364;2024-02-14T12:04:05;12.20;91.30
69595;DHT22;56800;52.142;5.364;2024-02-14T12:06:34;12.10;91.30
69595;DHT22;56800;52.142;5.364;2024-02-14T12:09:02;12.20;91.30
69595;DHT22;56800;52.142;5.364;2024-02-14T12:11:32;12.20;91.40
69595;DHT22;56800;52.142;5.364;2024-02-14T12:14:06;12.20;91.40
69595;DHT22;56800;52.142;5.364;2024-02-14T12:16:34;12.20;91.30
69595;DHT22;56800;52.142;5.364;2024-02-14T12:21:34;12.30;91.40
69595;DHT22;56800;52.142;5.364;2024-02-14T12:24:01;12.20;91.40
69595;DHT22;56800;52.142;5.364;2024-02-14T12:26:30;12.30;91.40
69595;DHT22;56800;52.142;5.364;2024-02-14T12:29:01;12.30;91.40
69595;DHT22;56800;52.142;5.364;2024-02-14T12:31:28;12.30;91.40
69595;DHT22;56800;52.142;5.364;2024-02-14T12:33:57;12.30;91.30
69595;DHT22;56800;52.142;5.364;2024-02-14T12:36:27;12.30;91.30
69595;DHT22;56800;52.142;5.364;2024-02-14T12:38:55;12.30;91.30
69595;DHT22;56800;52.142;5.364;2024-02-14T12:41:22;12.30;91.30
69595;DHT22;56800;52.142;5.364;2024-02-14T12:43:50;12.30;91.40
69595;DHT22;56800;52.142;5.364;2024-02-14T12:46:16;12.30;91.40
69595;DHT22;56800;52.142;5.364;2024-02-14T12:48:43;12.30;91.40
69595;DHT22;56800;52.142;5.364;2024-02-14T12:51:11;12.30;91.40
69595;DHT22;56800;52.142;5.364;2024-02-14T12:53:40;12.30;91.40
69595;DHT22;56800;52.142;5.364;2024-02-14T12:56:07;12.30;91.40
69595;DHT22;56800;52.142;5.364;2024-02-14T12:58:34;12.30;91.40
69595;DHT22;56800;52.142;5.364;2024-02-14T13:01:01;12.30;91.30
69595;DHT22;56800;52.142;5.364;2024-02-14T13:03:34;12.30;91.40
69595;DHT22;56800;52.142;5.364;2024-02-14T13:06:01;12.30;91.40
69595;DHT22;56800;52.142;5.364;2024-02-14T13:08:28;12.30;91.40
69595;DHT22;56800;52.142;5.364;2024-02-14T13:10:55;12.30;91.40
69595;DHT22;56800;52.142;5.364;2024-02-14T13:13:23;12.30;91.40
69595;DHT22;56800;52.142;5.364;2024-02-14T13:15:50;12.30;91.40
69595;DHT22;56800;52.142;5.364;2024-02-14T13:18:17;12.30;91.40
69595;DHT22;56800;52.142;5.364;2024-02-14T13:20:45;12.40;91.40
69595;DHT22;56800;52.142;5.364;2024-02-14T13:23:12;12.40;91.40
69595;DHT22;56800;52.142;5.364;2024-02-14T13:25:41;12.40;91.40
69595;DHT22;56800;52.142;5.364;2024-02-14T13:28:08;12.40;91.40
69595;DHT22;56800;52.142;5.364;2024-02-14T13:30:35;12.40;91.50
69595;DHT22;56800;52.142;5.364;2024-02-14T13:33:04;12.40;91.50
69595;DHT22;56800;52.142;5.364;2024-02-14T13:35:31;12.40;91.50
69595;DHT22;56800;52.142;5.364;2024-02-14T13:37:58;12.50;91.50
69595;DHT22;56800;52.142;5.364;2024-02-14T13:40:25;12.50;91.50
69595;DHT22;56800;52.142;5.364;2024-02-14T13:42:52;12.40;91.40
69595;DHT22;56800;52.142;5.364;2024-02-14T13:45:18;12.40;91.40
69595;DHT22;56800;52.142;5.364;2024-02-14T13:47:45;12.40;91.80
69595;DHT22;56800;52.142;5.364;2024-02-14T13:50:13;12.50;91.50
69595;DHT22;56800;52.142;5.364;2024-02-14T13:52:40;12.50;91.50
69595;DHT22;56800;52.142;5.364;2024-02-14T13:55:07;12.50;91.50
69595;DHT22;56800;52.142;5.364;2024-02-14T13:57:39;12.50;91.50
69595;DHT22;56800;52.142;5.364;2024-02-14T14:00:08;12.50;91.50
69595;DHT22;56800;52.142;5.364;2024-02-14T14:02:38;12.50;91.50
69595;DHT22;56800;52.142;5.364;2024-02-14T14:05:09;12.50;91.50
69595;DHT22;56800;52.142;5.364;2024-02-14T14:07:38;12.50;91.50
69595;DHT22;56800;52.142;5.364;2024-02-14T14:10:23;12.50;91.50
69595;DHT22;56800;52.142;5.364;2024-02-14T14:12:52;12.60;91.60
69595;DHT22;56800;52.142;5.364;2024-02-14T14:15:19;12.50;91.50
69595;DHT22;56800;52.142;5.364;2024-02-14T14:17:46;12.50;91.60
69595;DHT22;56800;52.142;5.364;2024-02-14T14:20:13;12.60;91.60
69595;DHT22;56800;52.142;5.364;2024-02-14T14:22:40;12.60;91.60
69595;DHT22;56800;52.142;5.364;2024-02-14T14:25:07;12.60;91.60
69595;DHT22;56800;52.142;5.364;2024-02-14T14:27:35;12.60;91.60
69595;DHT22;56800;52.142;5.364;2024-02-14T14:30:02;12.60;91.60
69595;DHT22;56800;52.142;5.364;2024-02-14T14:32:29;12.60;91.60
69595;DHT22;56800;52.142;5.364;2024-02-14T14:34:56;12.60;91.60
69595;DHT22;56800;52.142;5.364;2024-02-14T14:37:23;12.60;91.70
69595;DHT22;56800;52.142;5.364;2024-02-14T14:39:50;12.60;91.60
69595;DHT22;56800;52.142;5.364;2024-02-14T14:42:17;12.60;91.60
69595;DHT22;56800;52.142;5.364;2024-02-14T14:44:45;12.70;91.70
69595;DHT22;56800;52.142;5.364;2024-02-14T14:47:11;12.70;91.60
69595;DHT22;56800;52.142;5.364;2024-02-14T14:49:39;12.70;91.60
69595;DHT22;56800;52.142;5.364;2024-02-14T14:52:06;12.70;91.60
69595;DHT22;56800;52.142;5.364;2024-02-14T14:54:33;12.80;91.70
69595;DHT22;56800;52.142;5.364;2024-02-14T14:57:00;12.80;91.60
69595;DHT22;56800;52.142;5.364;2024-02-14T14:59:30;12.80;91.60
69595;DHT22;56800;52.142;5.364;2024-02-14T15:01:57;12.80;91.70
69595;DHT22;56800;52.142;5.364;2024-02-14T15:04:24;12.80;91.70
69595;DHT22;56800;52.142;5.364;2024-02-14T15:06:51;12.80;91.60
69595;DHT22;56800;52.142;5.364;2024-02-14T15:09:19;12.80;91.70
69595;DHT22;56800;52.142;5.364;2024-02-14T15:11:47;12.80;91.60
69595;DHT22;56800;52.142;5.364;2024-02-14T15:14:13;12.80;91.60
69595;DHT22;56800;52.142;5.364;2024-02-14T15:16:40;12.80;91.60
69595;DHT22;56800;52.142;5.364;2024-02-14T15:19:08;12.80;91.60
69595;DHT22;56800;52.142;5.364;2024-02-14T15:21:35;12.80;91.60
69595;DHT22;56800;52.142;5.364;2024-02-14T15:24:02;12.90;91.60
69595;DHT22;56800;52.142;5.364;2024-02-14T15:26:30;12.80;91.90
69595;DHT22;56800;52.142;5.364;2024-02-14T15:29:05;12.80;91.60
69595;DHT22;56800;52.142;5.364;2024-02-14T15:31:51;12.80;91.70
69595;DHT22;56800;52.142;5.364;2024-02-14T15:34:36;12.80;91.70
69595;DHT22;56800;52.142;5.364;2024-02-14T15:37:03;12.80;91.70
69595;DHT22;56800;52.142;5.364;2024-02-14T15:39:32;12.80;91.70
69595;DHT22;56800;52.142;5.364;2024-02-14T15:41:58;12.80;91.70